Spokane International Airport
KGEG : now visible

Airfield :











YOU CAN JOIN US ON...

 
LOGIN :

Register | Disclaimer

   EN    FR    IT 

 









Legend :    VFR   Marginal VFR   IFR   Intensive IFR   Very Intensive IFR
Visi :
Ceiling :
>= 8 km
>= 3000ft
5 to 8 km
1000 to 3000 ft
1500m to 5 km
500 to 1000 ft
800 to 1500m
200 to 500 ft
< 800m
< 200 ft
Symbols :   Thunderstorms  Fog  Heavy snow  Heavy precipitations  Wind > 20 kt






- Airport Elevation : 2376 ft
- IATA code : GEG


KGEG - Spokane International

CURRENT METAR :
  • 191102Z 21011KT 10SM BKN014 OVC110 10/08 A2982 RMK AO2 T01000078

EXPIRED METARs :
  • 191053Z 21011KT 10SM FEW011 BKN016 OVC110 10/08 A2982 RMK AO2 RAE13 SLP097 VCSH NE-SE P0000 T01000078
  • 190953Z 21013KT 10SM -RA FEW006 BKN011 OVC080 10/08 A2981 RMK AO2 RAB14 SLP094 CIG 010V013 P0000 T01000083
  • 190924Z 21013KT 10SM -RA SCT009 BKN100 OVC130 10/08 A2980 RMK AO2 RAB14 P0000 T01000083
  • 190914Z 21016KT 10SM -RA BKN009 BKN060 OVC100 10/08 A2980 RMK AO2 RAB14 CIG 008V010 P0000 T01000078
  • 190902Z 21014KT 10SM SCT009 SCT060 BKN120 OVC200 10/08 A2980 RMK AO2 VCSH SW-NW T01000078

TAF KGEG
Valid from the 19 at 06:00 until the 20 at 06:00 UTC


190520Z 1906/2006 19005KT P6SM SCT009 BKN030
FM190700 19005KT P6SM VCSH BKN025 BKN060 OVC100
FM191000 19006KT 6SM BR SCT005 OVC015
FM191700 21009KT P6SM VCSH BKN030 OVC070
FM192000 23012G20KT P6SM -SHRA BKN025 BKN050
FM200200 22007KT P6SM SCT050 BKN100
KZSE FIR / North America



MET'MAP, your aeronautical weather chart ! - Copyright ORBIFLY December 2007 - Disclaimer

ORBIFLY MET'MAP TEAM :

Programming & Development : Alexandra Zaïnal
Concept & original design : Baudouin d'Aumeries
Assistance for programming : Marc-Olivier Méhu
Technical & hardware support : Manuel Goepfert

Contact : metmap@orbifly.com




SOURCES & CREDITS :

   NOAA       Earth
Advisory